sensor_id;sensor_type;location;lat;lon;timestamp;temperature;humidity
15926;DHT22;8062;53.882;10.642;2022-10-16T00:01:06;14.20;99.90
15926;DHT22;8062;53.882;10.642;2022-10-16T00:02:07;14.20;99.90
15926;DHT22;8062;53.882;10.642;2022-10-16T00:03:08;14.20;99.90
15926;DHT22;8062;53.882;10.642;2022-10-16T00:04:10;14.20;99.90
15926;DHT22;8062;53.882;10.642;2022-10-16T00:05:11;14.10;99.90
15926;DHT22;8062;53.882;10.642;2022-10-16T00:06:13;14.10;99.90
15926;DHT22;8062;53.882;10.642;2022-10-16T00:07:14;14.10;99.90
15926;DHT22;8062;53.882;10.642;2022-10-16T00:08:15;14.10;99.90
15926;DHT22;8062;53.882;10.642;2022-10-16T00:09:16;14.20;99.90
15926;DHT22;8062;53.882;10.642;2022-10-16T00:10:17;14.20;99.90
15926;DHT22;8062;53.882;10.642;2022-10-16T00:11:30;14.20;99.90
15926;DHT22;8062;53.882;10.642;2022-10-16T00:12:31;14.10;99.90
15926;DHT22;8062;53.882;10.642;2022-10-16T00:13:34;14.20;99.90
15926;DHT22;8062;53.882;10.642;2022-10-16T00:14:36;14.20;99.90
15926;DHT22;8062;53.882;10.642;2022-10-16T00:15:37;14.20;99.90
15926;DHT22;8062;53.882;10.642;2022-10-16T00:16:40;14.10;99.90
15926;DHT22;8062;53.882;10.642;2022-10-16T00:17:41;14.10;99.90
15926;DHT22;8062;53.882;10.642;2022-10-16T00:18:42;14.10;99.90
15926;DHT22;8062;53.882;10.642;2022-10-16T00:19:43;14.20;99.90
15926;DHT22;8062;53.882;10.642;2022-10-16T00:20:44;14.20;99.90
15926;DHT22;8062;53.882;10.642;2022-10-16T00:21:45;14.10;99.90
15926;DHT22;8062;53.882;10.642;2022-10-16T00:22:47;14.10;99.90
15926;DHT22;8062;53.882;10.642;2022-10-16T00:23:56;14.10;99.90
15926;DHT22;8062;53.882;10.642;2022-10-16T00:24:57;14.20;99.90
15926;DHT22;8062;53.882;10.642;2022-10-16T00:26:00;14.20;99.90
15926;DHT22;8062;53.882;10.642;2022-10-16T00:27:01;14.10;99.90
15926;DHT22;8062;53.882;10.642;2022-10-16T00:28:02;14.20;99.90
15926;DHT22;8062;53.882;10.642;2022-10-16T00:29:05;14.10;99.90
15926;DHT22;8062;53.882;10.642;2022-10-16T00:30:07;14.10;99.90
15926;DHT22;8062;53.882;10.642;2022-10-16T00:31:11;14.20;99.90
15926;DHT22;8062;53.882;10.642;2022-10-16T00:32:12;14.20;99.90
15926;DHT22;8062;53.882;10.642;2022-10-16T00:33:13;14.10;99.90
15926;DHT22;8062;53.882;10.642;2022-10-16T00:34:14;14.10;99.90
15926;DHT22;8062;53.882;10.642;2022-10-16T00:35:15;14.10;99.90
15926;DHT22;8062;53.882;10.642;2022-10-16T00:36:18;14.10;99.90
15926;DHT22;8062;53.882;10.642;2022-10-16T00:37:20;14.00;99.90
15926;DHT22;8062;53.882;10.642;2022-10-16T00:38:21;14.10;99.90
15926;DHT22;8062;53.882;10.642;2022-10-16T00:39:22;14.10;99.90
15926;DHT22;8062;53.882;10.642;2022-10-16T00:40:23;14.10;99.90
15926;DHT22;8062;53.882;10.642;2022-10-16T00:41:24;14.10;99.90
15926;DHT22;8062;53.882;10.642;2022-10-16T00:42:25;14.10;99.90
15926;DHT22;8062;53.882;10.642;2022-10-16T00:44:49;14.10;99.90
15926;DHT22;8062;53.882;10.642;2022-10-16T00:45:53;14.10;99.90
15926;DHT22;8062;53.882;10.642;2022-10-16T00:46:54;14.10;99.90
15926;DHT22;8062;53.882;10.642;2022-10-16T00:47:55;14.00;99.90
15926;DHT22;8062;53.882;10.642;2022-10-16T00:49:05;14.10;99.90
15926;DHT22;8062;53.882;10.642;2022-10-16T00:50:16;14.00;99.90
15926;DHT22;8062;53.882;10.642;2022-10-16T00:51:23;14.00;99.90
15926;DHT22;8062;53.882;10.642;2022-10-16T00:52:26;14.00;99.90
15926;DHT22;8062;53.882;10.642;2022-10-16T00:53:27;14.00;99.90
15926;DHT22;8062;53.882;10.642;2022-10-16T00:54:30;13.90;99.90
15926;DHT22;8062;53.882;10.642;2022-10-16T00:55:31;14.00;99.90
15926;DHT22;8062;53.882;10.642;2022-10-16T00:56:33;14.00;99.90
15926;DHT22;8062;53.882;10.642;2022-10-16T00:57:34;14.00;99.90
15926;DHT22;8062;53.882;10.642;2022-10-16T00:58:35;13.90;99.90
15926;DHT22;8062;53.882;10.642;2022-10-16T00:59:39;13.90;99.90
15926;DHT22;8062;53.882;10.642;2022-10-16T01:00:40;13.90;99.90
15926;DHT22;8062;53.882;10.642;2022-10-16T01:01:41;14.00;99.90
15926;DHT22;8062;53.882;10.642;2022-10-16T01:02:42;14.00;99.90
15926;DHT22;8062;53.882;10.642;2022-10-16T01:03:43;14.00;99.90
15926;DHT22;8062;53.882;10.642;2022-10-16T01:04:48;14.00;99.90
15926;DHT22;8062;53.882;10.642;2022-10-16T01:08:36;13.90;99.90
15926;DHT22;8062;53.882;10.642;2022-10-16T01:10:06;13.90;99.90
15926;DHT22;8062;53.882;10.642;2022-10-16T01:11:21;13.90;99.90
15926;DHT22;8062;53.882;10.642;2022-10-16T01:12:30;13.80;99.90
15926;DHT22;8062;53.882;10.642;2022-10-16T01:13:41;13.80;99.90
15926;DHT22;8062;53.882;10.642;2022-10-16T01:14:53;13.70;99.90
15926;DHT22;8062;53.882;10.642;2022-10-16T01:16:00;13.70;99.90
15926;DHT22;8062;53.882;10.642;2022-10-16T01:17:13;13.70;99.90
15926;DHT22;8062;53.882;10.642;2022-10-16T01:18:29;13.80;99.90
15926;DHT22;8062;53.882;10.642;2022-10-16T01:20:58;13.70;99.90
15926;DHT22;8062;53.882;10.642;2022-10-16T01:22:00;13.70;99.90
15926;DHT22;8062;53.882;10.642;2022-10-16T01:23:21;13.60;99.90
15926;DHT22;8062;53.882;10.642;2022-10-16T01:24:44;13.60;99.90
15926;DHT22;8062;53.882;10.642;2022-10-16T01:27:26;13.50;99.90
15926;DHT22;8062;53.882;10.642;2022-10-16T01:28:34;13.50;99.90
15926;DHT22;8062;53.882;10.642;2022-10-16T01:29:57;13.50;99.90
15926;DHT22;8062;53.882;10.642;2022-10-16T01:31:01;13.40;99.90
15926;DHT22;8062;53.882;10.642;2022-10-16T01:32:16;13.50;99.90
15926;DHT22;8062;53.882;10.642;2022-10-16T01:33:22;13.40;99.90
15926;DHT22;8062;53.882;10.642;2022-10-16T01:34:31;13.40;99.90
15926;DHT22;8062;53.882;10.642;2022-10-16T01:36:42;13.40;99.90
15926;DHT22;8062;53.882;10.642;2022-10-16T01:39:21;13.30;99.90
15926;DHT22;8062;53.882;10.642;2022-10-16T01:40:26;13.30;99.90
15926;DHT22;8062;53.882;10.642;2022-10-16T01:41:33;13.40;99.90
15926;DHT22;8062;53.882;10.642;2022-10-16T01:42:48;13.30;99.90
15926;DHT22;8062;53.882;10.642;2022-10-16T01:43:57;13.30;99.90
15926;DHT22;8062;53.882;10.642;2022-10-16T01:44:59;13.40;99.90
15926;DHT22;8062;53.882;10.642;2022-10-16T01:46:01;13.40;99.90
15926;DHT22;8062;53.882;10.642;2022-10-16T01:47:03;13.40;99.90
15926;DHT22;8062;53.882;10.642;2022-10-16T01:48:06;13.40;99.90
15926;DHT22;8062;53.882;10.642;2022-10-16T01:49:11;13.40;99.90
15926;DHT22;8062;53.882;10.642;2022-10-16T01:50:15;13.40;99.90
15926;DHT22;8062;53.882;10.642;2022-10-16T01:51:17;13.40;99.90
15926;DHT22;8062;53.882;10.642;2022-10-16T01:52:23;13.40;99.90
15926;DHT22;8062;53.882;10.642;2022-10-16T01:53:26;13.40;99.90
15926;DHT22;8062;53.882;10.642;2022-10-16T01:54:29;13.40;99.90
15926;DHT22;8062;53.882;10.642;2022-10-16T01:55:36;13.30;99.90
15926;DHT22;8062;53.882;10.642;2022-10-16T01:56:39;13.30;99.90
15926;DHT22;8062;53.882;10.642;2022-10-16T01:57:44;13.30;99.90
15926;DHT22;8062;53.882;10.642;2022-10-16T01:58:55;13.30;99.90
15926;DHT22;8062;53.882;10.642;2022-10-16T02:00:05;13.30;99.90
15926;DHT22;8062;53.882;10.642;2022-10-16T02:01:15;13.30;99.90
15926;DHT22;8062;53.882;10.642;2022-10-16T02:02:19;13.30;99.90
15926;DHT22;8062;53.882;10.642;2022-10-16T02:03:21;13.30;99.90
15926;DHT22;8062;53.882;10.642;2022-10-16T02:05:38;13.30;99.90
15926;DHT22;8062;53.882;10.642;2022-10-16T02:06:41;13.30;99.90
15926;DHT22;8062;53.882;10.642;2022-10-16T02:07:42;13.30;99.90
15926;DHT22;8062;53.882;10.642;2022-10-16T02:08:43;13.30;99.90
15926;DHT22;8062;53.882;10.642;2022-10-16T02:09:45;13.30;99.90
15926;DHT22;8062;53.882;10.642;2022-10-16T02:10:46;13.30;99.90
15926;DHT22;8062;53.882;10.642;2022-10-16T02:11:47;13.30;99.90
15926;DHT22;8062;53.882;10.642;2022-10-16T02:12:55;13.30;99.90
15926;DHT22;8062;53.882;10.642;2022-10-16T02:14:06;13.20;99.90
15926;DHT22;8062;53.882;10.642;2022-10-16T02:15:08;13.20;99.90
15926;DHT22;8062;53.882;10.642;2022-10-16T02:16:10;13.20;99.90
15926;DHT22;8062;53.882;10.642;2022-10-16T02:17:16;13.10;99.90
15926;DHT22;8062;53.882;10.642;2022-10-16T02:18:17;13.20;99.90
15926;DHT22;8062;53.882;10.642;2022-10-16T02:19:19;13.20;99.90
15926;DHT22;8062;53.882;10.642;2022-10-16T02:20:29;13.20;99.90
15926;DHT22;8062;53.882;10.642;2022-10-16T02:22:44;13.20;99.90
15926;DHT22;8062;53.882;10.642;2022-10-16T02:26:29;13.30;99.90
15926;DHT22;8062;53.882;10.642;2022-10-16T02:29:08;13.30;99.90
15926;DHT22;8062;53.882;10.642;2022-10-16T02:30:21;13.30;99.90
15926;DHT22;8062;53.882;10.642;2022-10-16T02:31:27;13.30;99.90
15926;DHT22;8062;53.882;10.642;2022-10-16T02:32:30;13.20;99.90
15926;DHT22;8062;53.882;10.642;2022-10-16T02:33:34;13.20;99.90
15926;DHT22;8062;53.882;10.642;2022-10-16T02:34:37;13.20;99.90
15926;DHT22;8062;53.882;10.642;2022-10-16T02:35:41;13.20;99.90
15926;DHT22;8062;53.882;10.642;2022-10-16T02:36:44;13.30;99.90
15926;DHT22;8062;53.882;10.642;2022-10-16T02:37:47;13.30;99.90
15926;DHT22;8062;53.882;10.642;2022-10-16T02:38:49;13.30;99.90
15926;DHT22;8062;53.882;10.642;2022-10-16T02:39:51;13.30;99.90
15926;DHT22;8062;53.882;10.642;2022-10-16T02:40:52;13.30;99.90
15926;DHT22;8062;53.882;10.642;2022-10-16T02:41:53;13.20;99.90
15926;DHT22;8062;53.882;10.642;2022-10-16T02:42:55;13.20;99.90
15926;DHT22;8062;53.882;10.642;2022-10-16T02:43:56;13.20;99.90
15926;DHT22;8062;53.882;10.642;2022-10-16T02:44:57;13.30;99.90
15926;DHT22;8062;53.882;10.642;2022-10-16T02:45:58;13.30;99.90
15926;DHT22;8062;53.882;10.642;2022-10-16T02:47:00;13.30;99.90
15926;DHT22;8062;53.882;10.642;2022-10-16T02:48:01;13.30;99.90
15926;DHT22;8062;53.882;10.642;2022-10-16T02:49:02;13.30;99.90
15926;DHT22;8062;53.882;10.642;2022-10-16T02:50:03;13.30;99.90
15926;DHT22;8062;53.882;10.642;2022-10-16T02:51:05;13.30;99.90
15926;DHT22;8062;53.882;10.642;2022-10-16T02:52:06;13.30;99.90
15926;DHT22;8062;53.882;10.642;2022-10-16T02:53:08;13.20;99.90
15926;DHT22;8062;53.882;10.642;2022-10-16T02:54:09;13.20;99.90
15926;DHT22;8062;53.882;10.642;2022-10-16T02:55:10;13.20;99.90
15926;DHT22;8062;53.882;10.642;2022-10-16T02:56:11;13.20;99.90
15926;DHT22;8062;53.882;10.642;2022-10-16T02:57:12;13.20;99.90
15926;DHT22;8062;53.882;10.642;2022-10-16T02:58:13;13.20;99.90
15926;DHT22;8062;53.882;10.642;2022-10-16T02:59:14;13.20;99.90
15926;DHT22;8062;53.882;10.642;2022-10-16T03:00:17;13.20;99.90
15926;DHT22;8062;53.882;10.642;2022-10-16T03:01:18;13.20;99.90
15926;DHT22;8062;53.882;10.642;2022-10-16T03:02:19;13.10;99.90
15926;DHT22;8062;53.882;10.642;2022-10-16T03:03:20;13.20;99.90
15926;DHT22;8062;53.882;10.642;2022-10-16T03:04:21;13.10;99.90
15926;DHT22;8062;53.882;10.642;2022-10-16T03:05:22;13.20;99.90
15926;DHT22;8062;53.882;10.642;2022-10-16T03:06:23;13.10;99.90
15926;DHT22;8062;53.882;10.642;2022-10-16T03:07:24;13.20;99.90
15926;DHT22;8062;53.882;10.642;2022-10-16T03:08:25;13.20;99.90
15926;DHT22;8062;53.882;10.642;2022-10-16T03:09:26;13.20;99.90
15926;DHT22;8062;53.882;10.642;2022-10-16T03:10:27;13.20;99.90
15926;DHT22;8062;53.882;10.642;2022-10-16T03:11:28;13.10;99.90
15926;DHT22;8062;53.882;10.642;2022-10-16T03:12:30;13.10;99.90
15926;DHT22;8062;53.882;10.642;2022-10-16T03:13:31;13.10;99.90
15926;DHT22;8062;53.882;10.642;2022-10-16T03:14:33;13.10;99.90
15926;DHT22;8062;53.882;10.642;2022-10-16T03:15:34;13.00;99.90
15926;DHT22;8062;53.882;10.642;2022-10-16T03:16:35;13.10;99.90
15926;DHT22;8062;53.882;10.642;2022-10-16T03:17:36;13.00;99.90
15926;DHT22;8062;53.882;10.642;2022-10-16T03:18:37;13.10;99.90
15926;DHT22;8062;53.882;10.642;2022-10-16T03:19:38;13.10;99.90
15926;DHT22;8062;53.882;10.642;2022-10-16T03:20:39;13.00;99.90
15926;DHT22;8062;53.882;10.642;2022-10-16T03:21:41;13.00;99.90
15926;DHT22;8062;53.882;10.642;2022-10-16T03:22:42;13.00;99.90
15926;DHT22;8062;53.882;10.642;2022-10-16T03:23:43;13.00;99.90
15926;DHT22;8062;53.882;10.642;2022-10-16T03:24:44;12.90;99.90
15926;DHT22;8062;53.882;10.642;2022-10-16T03:25:45;12.90;99.90
15926;DHT22;8062;53.882;10.642;2022-10-16T03:26:46;12.90;99.90
15926;DHT22;8062;53.882;10.642;2022-10-16T03:27:47;12.90;99.90
15926;DHT22;8062;53.882;10.642;2022-10-16T03:28:48;12.90;99.90
15926;DHT22;8062;53.882;10.642;2022-10-16T03:29:49;12.90;99.90
15926;DHT22;8062;53.882;10.642;2022-10-16T03:30:50;12.80;99.90
15926;DHT22;8062;53.882;10.642;2022-10-16T03:31:51;12.80;99.90
15926;DHT22;8062;53.882;10.642;2022-10-16T03:32:52;12.80;99.90
15926;DHT22;8062;53.882;10.642;2022-10-16T03:33:54;12.80;99.90
15926;DHT22;8062;53.882;10.642;2022-10-16T03:34:55;12.70;99.90
15926;DHT22;8062;53.882;10.642;2022-10-16T03:35:58;12.60;99.90
15926;DHT22;8062;53.882;10.642;2022-10-16T03:36:59;12.60;99.90
15926;DHT22;8062;53.882;10.642;2022-10-16T03:38:00;12.70;99.90
15926;DHT22;8062;53.882;10.642;2022-10-16T03:39:01;12.70;99.90
15926;DHT22;8062;53.882;10.642;2022-10-16T03:40:03;12.70;99.90
15926;DHT22;8062;53.882;10.642;2022-10-16T03:41:04;12.70;99.90
15926;DHT22;8062;53.882;10.642;2022-10-16T03:42:06;12.70;99.90
15926;DHT22;8062;53.882;10.642;2022-10-16T03:43:07;12.70;99.90
15926;DHT22;8062;53.882;10.642;2022-10-16T03:44:08;12.70;99.90
15926;DHT22;8062;53.882;10.642;2022-10-16T03:45:10;12.60;99.90
15926;DHT22;8062;53.882;10.642;2022-10-16T03:46:11;12.60;99.90
15926;DHT22;8062;53.882;10.642;2022-10-16T03:47:12;12.60;99.90
15926;DHT22;8062;53.882;10.642;2022-10-16T03:48:13;12.60;99.90
15926;DHT22;8062;53.882;10.642;2022-10-16T03:49:14;12.60;99.90
15926;DHT22;8062;53.882;10.642;2022-10-16T03:50:16;12.60;99.90
15926;DHT22;8062;53.882;10.642;2022-10-16T03:51:17;12.60;99.90
15926;DHT22;8062;53.882;10.642;2022-10-16T03:52:18;12.50;99.90
15926;DHT22;8062;53.882;10.642;2022-10-16T03:53:19;12.50;99.90
15926;DHT22;8062;53.882;10.642;2022-10-16T03:54:20;12.50;99.90
15926;DHT22;8062;53.882;10.642;2022-10-16T03:55:22;12.40;99.90
15926;DHT22;8062;53.882;10.642;2022-10-16T03:56:23;12.40;99.90
15926;DHT22;8062;53.882;10.642;2022-10-16T03:57:24;12.40;99.90
15926;DHT22;8062;53.882;10.642;2022-10-16T03:58:26;12.40;99.90
15926;DHT22;8062;53.882;10.642;2022-10-16T03:59:27;12.40;99.90
15926;DHT22;8062;53.882;10.642;2022-10-16T04:00:28;12.40;99.90
15926;DHT22;8062;53.882;10.642;2022-10-16T04:01:29;12.30;99.90
15926;DHT22;8062;53.882;10.642;2022-10-16T04:02:30;12.30;99.90
15926;DHT22;8062;53.882;10.642;2022-10-16T04:03:31;12.30;99.90
15926;DHT22;8062;53.882;10.642;2022-10-16T04:04:32;12.30;99.90
15926;DHT22;8062;53.882;10.642;2022-10-16T04:05:33;12.30;99.90
15926;DHT22;8062;53.882;10.642;2022-10-16T04:06:34;12.30;99.90
15926;DHT22;8062;53.882;10.642;2022-10-16T04:07:35;12.30;99.90
15926;DHT22;8062;53.882;10.642;2022-10-16T04:08:36;12.30;99.90
15926;DHT22;8062;53.882;10.642;2022-10-16T04:09:37;12.30;99.90
15926;DHT22;8062;53.882;10.642;2022-10-16T04:10:38;12.40;99.90
15926;DHT22;8062;53.882;10.642;2022-10-16T04:11:39;12.40;99.90
15926;DHT22;8062;53.882;10.642;2022-10-16T04:12:40;12.40;99.90
15926;DHT22;8062;53.882;10.642;2022-10-16T04:13:41;12.40;99.90
15926;DHT22;8062;53.882;10.642;2022-10-16T04:14:43;12.40;99.90
15926;DHT22;8062;53.882;10.642;2022-10-16T04:15:45;12.40;99.90
15926;DHT22;8062;53.882;10.642;2022-10-16T04:16:46;12.40;99.90
15926;DHT22;8062;53.882;10.642;2022-10-16T04:17:47;12.40;99.90
15926;DHT22;8062;53.882;10.642;2022-10-16T04:18:48;12.40;99.90
15926;DHT22;8062;53.882;10.642;2022-10-16T04:19:49;12.40;99.90
15926;DHT22;8062;53.882;10.642;2022-10-16T04:20:50;12.40;99.90
15926;DHT22;8062;53.882;10.642;2022-10-16T04:21:51;12.40;99.90
15926;DHT22;8062;53.882;10.642;2022-10-16T04:22:52;12.30;99.90
15926;DHT22;8062;53.882;10.642;2022-10-16T04:23:53;12.30;99.90
15926;DHT22;8062;53.882;10.642;2022-10-16T04:24:54;12.40;99.90
15926;DHT22;8062;53.882;10.642;2022-10-16T04:25:55;12.40;99.90
15926;DHT22;8062;53.882;10.642;2022-10-16T04:26:57;12.50;99.90
15926;DHT22;8062;53.882;10.642;2022-10-16T04:27:58;12.50;99.90
15926;DHT22;8062;53.882;10.642;2022-10-16T04:28:59;12.40;99.90
15926;DHT22;8062;53.882;10.642;2022-10-16T04:30:00;12.40;99.90
15926;DHT22;8062;53.882;10.642;2022-10-16T04:31:04;12.40;99.90
15926;DHT22;8062;53.882;10.642;2022-10-16T04:32:05;12.40;99.90
15926;DHT22;8062;53.882;10.642;2022-10-16T04:33:07;12.50;99.90
15926;DHT22;8062;53.882;10.642;2022-10-16T04:34:09;12.50;99.90
15926;DHT22;8062;53.882;10.642;2022-10-16T04:35:10;12.50;99.90
15926;DHT22;8062;53.882;10.642;2022-10-16T04:36:11;12.50;99.90
15926;DHT22;8062;53.882;10.642;2022-10-16T04:37:12;12.50;99.90
15926;DHT22;8062;53.882;10.642;2022-10-16T04:38:14;12.50;99.90
15926;DHT22;8062;53.882;10.642;2022-10-16T04:39:16;12.50;99.90
15926;DHT22;8062;53.882;10.642;2022-10-16T04:40:17;12.60;99.90
15926;DHT22;8062;53.882;10.642;2022-10-16T04:41:18;12.50;99.90
15926;DHT22;8062;53.882;10.642;2022-10-16T04:42:20;12.50;99.90
15926;DHT22;8062;53.882;10.642;2022-10-16T04:43:21;12.50;99.90
15926;DHT22;8062;53.882;10.642;2022-10-16T04:44:22;12.60;99.90
15926;DHT22;8062;53.882;10.642;2022-10-16T04:45:23;12.50;99.90
15926;DHT22;8062;53.882;10.642;2022-10-16T04:46:24;12.60;99.90
15926;DHT22;8062;53.882;10.642;2022-10-16T04:47:25;12.50;99.90
15926;DHT22;8062;53.882;10.642;2022-10-16T04:48:26;12.50;99.90
15926;DHT22;8062;53.882;10.642;2022-10-16T04:49:27;12.60;99.90
15926;DHT22;8062;53.882;10.642;2022-10-16T04:50:29;12.60;99.90
15926;DHT22;8062;53.882;10.642;2022-10-16T04:51:39;12.60;99.90
15926;DHT22;8062;53.882;10.642;2022-10-16T04:52:40;12.60;99.90
15926;DHT22;8062;53.882;10.642;2022-10-16T04:53:41;12.60;99.90
15926;DHT22;8062;53.882;10.642;2022-10-16T04:54:42;12.60;99.90
15926;DHT22;8062;53.882;10.642;2022-10-16T04:55:45;12.60;99.90
15926;DHT22;8062;53.882;10.642;2022-10-16T04:56:47;12.60;99.90
15926;DHT22;8062;53.882;10.642;2022-10-16T04:57:48;12.60;99.90
15926;DHT22;8062;53.882;10.642;2022-10-16T04:58:50;12.60;99.90
15926;DHT22;8062;53.882;10.642;2022-10-16T04:59:51;12.70;99.90
15926;DHT22;8062;53.882;10.642;2022-10-16T05:00:52;12.60;99.90
15926;DHT22;8062;53.882;10.642;2022-10-16T05:01:53;12.60;99.90
15926;DHT22;8062;53.882;10.642;2022-10-16T05:02:54;12.60;99.90
15926;DHT22;8062;53.882;10.642;2022-10-16T05:03:55;12.60;99.90
15926;DHT22;8062;53.882;10.642;2022-10-16T05:04:56;12.60;99.90
15926;DHT22;8062;53.882;10.642;2022-10-16T05:05:58;12.60;99.90
15926;DHT22;8062;53.882;10.642;2022-10-16T05:06:59;12.60;99.90
15926;DHT22;8062;53.882;10.642;2022-10-16T05:08:00;12.60;99.90
15926;DHT22;8062;53.882;10.642;2022-10-16T05:09:02;12.60;99.90
15926;DHT22;8062;53.882;10.642;2022-10-16T05:10:03;12.60;99.90
15926;DHT22;8062;53.882;10.642;2022-10-16T05:11:04;12.60;99.90
15926;DHT22;8062;53.882;10.642;2022-10-16T05:12:05;12.50;99.90
15926;DHT22;8062;53.882;10.642;2022-10-16T05:13:06;12.50;99.90
15926;DHT22;8062;53.882;10.642;2022-10-16T05:14:08;12.50;99.90
15926;DHT22;8062;53.882;10.642;2022-10-16T05:15:09;12.50;99.90
15926;DHT22;8062;53.882;10.642;2022-10-16T05:16:10;12.50;99.90
15926;DHT22;8062;53.882;10.642;2022-10-16T05:17:11;12.50;99.90
15926;DHT22;8062;53.882;10.642;2022-10-16T05:18:12;12.50;99.90
15926;DHT22;8062;53.882;10.642;2022-10-16T05:19:14;12.50;99.90
15926;DHT22;8062;53.882;10.642;2022-10-16T05:20:15;12.50;99.90
15926;DHT22;8062;53.882;10.642;2022-10-16T05:21:16;12.40;99.90
15926;DHT22;8062;53.882;10.642;2022-10-16T05:22:17;12.40;99.90
15926;DHT22;8062;53.882;10.642;2022-10-16T05:23:18;12.40;99.90
15926;DHT22;8062;53.882;10.642;2022-10-16T05:24:19;12.40;99.90
15926;DHT22;8062;53.882;10.642;2022-10-16T05:25:20;12.40;99.90
15926;DHT22;8062;53.882;10.642;2022-10-16T05:26:21;12.40;99.90
15926;DHT22;8062;53.882;10.642;2022-10-16T05:27:22;12.40;99.90
15926;DHT22;8062;53.882;10.642;2022-10-16T05:28:31;12.30;99.90
15926;DHT22;8062;53.882;10.642;2022-10-16T05:29:33;12.30;99.90
15926;DHT22;8062;53.882;10.642;2022-10-16T05:30:34;12.30;99.90
15926;DHT22;8062;53.882;10.642;2022-10-16T05:31:35;12.40;99.90
15926;DHT22;8062;53.882;10.642;2022-10-16T05:32:36;12.30;99.90
15926;DHT22;8062;53.882;10.642;2022-10-16T05:33:37;12.40;99.90
15926;DHT22;8062;53.882;10.642;2022-10-16T05:34:38;12.30;99.90
15926;DHT22;8062;53.882;10.642;2022-10-16T05:35:39;12.40;99.90
15926;DHT22;8062;53.882;10.642;2022-10-16T05:36:40;12.40;99.90
15926;DHT22;8062;53.882;10.642;2022-10-16T05:37:41;12.30;99.90
15926;DHT22;8062;53.882;10.642;2022-10-16T05:38:42;12.30;99.90
15926;DHT22;8062;53.882;10.642;2022-10-16T05:39:43;12.30;99.90
15926;DHT22;8062;53.882;10.642;2022-10-16T05:40:51;12.30;99.90
15926;DHT22;8062;53.882;10.642;2022-10-16T05:41:53;12.30;99.90
15926;DHT22;8062;53.882;10.642;2022-10-16T05:42:55;12.30;99.90
15926;DHT22;8062;53.882;10.642;2022-10-16T05:43:56;12.30;99.90
15926;DHT22;8062;53.882;10.642;2022-10-16T05:44:57;12.30;99.90
15926;DHT22;8062;53.882;10.642;2022-10-16T05:46:00;12.30;99.90
15926;DHT22;8062;53.882;10.642;2022-10-16T05:47:02;12.30;99.90
15926;DHT22;8062;53.882;10.642;2022-10-16T05:48:03;12.20;99.90
15926;DHT22;8062;53.882;10.642;2022-10-16T05:49:04;12.30;99.90
15926;DHT22;8062;53.882;10.642;2022-10-16T05:50:06;12.20;99.90
15926;DHT22;8062;53.882;10.642;2022-10-16T05:51:11;12.30;99.90
15926;DHT22;8062;53.882;10.642;2022-10-16T05:52:12;12.20;99.90
15926;DHT22;8062;53.882;10.642;2022-10-16T05:53:13;12.20;99.90
15926;DHT22;8062;53.882;10.642;2022-10-16T05:54:14;12.20;99.90
15926;DHT22;8062;53.882;10.642;2022-10-16T05:55:15;12.20;99.90
15926;DHT22;8062;53.882;10.642;2022-10-16T05:56:16;12.20;99.90
15926;DHT22;8062;53.882;10.642;2022-10-16T05:57:17;12.20;99.90
15926;DHT22;8062;53.882;10.642;2022-10-16T05:58:18;12.20;99.90
15926;DHT22;8062;53.882;10.642;2022-10-16T05:59:19;12.10;99.90
15926;DHT22;8062;53.882;10.642;2022-10-16T06:00:20;12.20;99.90
15926;DHT22;8062;53.882;10.642;2022-10-16T06:01:21;12.20;99.90
15926;DHT22;8062;53.882;10.642;2022-10-16T06:02:24;12.20;99.90
15926;DHT22;8062;53.882;10.642;2022-10-16T06:03:26;12.20;99.90
15926;DHT22;8062;53.882;10.642;2022-10-16T06:04:27;12.20;99.90
15926;DHT22;8062;53.882;10.642;2022-10-16T06:05:28;12.20;99.90
15926;DHT22;8062;53.882;10.642;2022-10-16T06:06:29;12.20;99.90
15926;DHT22;8062;53.882;10.642;2022-10-16T06:07:34;12.20;99.90
15926;DHT22;8062;53.882;10.642;2022-10-16T06:08:36;12.20;99.90
15926;DHT22;8062;53.882;10.642;2022-10-16T06:09:37;12.30;99.90
15926;DHT22;8062;53.882;10.642;2022-10-16T06:10:38;12.20;99.90
15926;DHT22;8062;53.882;10.642;2022-10-16T06:11:39;12.30;99.90
15926;DHT22;8062;53.882;10.642;2022-10-16T06:12:40;12.30;99.90
15926;DHT22;8062;53.882;10.642;2022-10-16T06:13:41;12.30;99.90
15926;DHT22;8062;53.882;10.642;2022-10-16T06:14:44;12.30;99.90
15926;DHT22;8062;53.882;10.642;2022-10-16T06:15:45;12.40;99.90
15926;DHT22;8062;53.882;10.642;2022-10-16T06:16:46;12.40;99.90
15926;DHT22;8062;53.882;10.642;2022-10-16T06:17:47;12.40;99.90
15926;DHT22;8062;53.882;10.642;2022-10-16T06:18:50;12.40;99.90
15926;DHT22;8062;53.882;10.642;2022-10-16T06:19:51;12.40;99.90
15926;DHT22;8062;53.882;10.642;2022-10-16T06:20:52;12.50;99.90
15926;DHT22;8062;53.882;10.642;2022-10-16T06:21:53;12.50;99.90
15926;DHT22;8062;53.882;10.642;2022-10-16T06:22:54;12.50;99.90
15926;DHT22;8062;53.882;10.642;2022-10-16T06:23:56;12.60;99.90
15926;DHT22;8062;53.882;10.642;2022-10-16T06:24:57;12.60;99.90
15926;DHT22;8062;53.882;10.642;2022-10-16T06:26:10;12.60;99.90
15926;DHT22;8062;53.882;10.642;2022-10-16T06:27:11;12.60;99.90
15926;DHT22;8062;53.882;10.642;2022-10-16T06:28:14;12.60;99.90
15926;DHT22;8062;53.882;10.642;2022-10-16T06:29:15;12.60;99.90
15926;DHT22;8062;53.882;10.642;2022-10-16T06:30:16;12.60;99.90
15926;DHT22;8062;53.882;10.642;2022-10-16T06:31:17;12.70;99.90
15926;DHT22;8062;53.882;10.642;2022-10-16T06:32:19;12.70;99.90
15926;DHT22;8062;53.882;10.642;2022-10-16T06:33:20;12.70;99.90
15926;DHT22;8062;53.882;10.642;2022-10-16T06:34:21;12.70;99.90
15926;DHT22;8062;53.882;10.642;2022-10-16T06:35:22;12.80;99.90
15926;DHT22;8062;53.882;10.642;2022-10-16T06:36:24;12.80;99.90
15926;DHT22;8062;53.882;10.642;2022-10-16T06:37:26;12.80;99.90
15926;DHT22;8062;53.882;10.642;2022-10-16T06:38:27;12.80;99.90
15926;DHT22;8062;53.882;10.642;2022-10-16T06:39:28;12.80;99.90
15926;DHT22;8062;53.882;10.642;2022-10-16T06:40:29;12.80;99.90
15926;DHT22;8062;53.882;10.642;2022-10-16T06:41:31;12.80;99.90
15926;DHT22;8062;53.882;10.642;2022-10-16T06:42:37;12.90;99.90
15926;DHT22;8062;53.882;10.642;2022-10-16T06:43:38;12.90;99.90
15926;DHT22;8062;53.882;10.642;2022-10-16T06:44:39;12.90;99.90
15926;DHT22;8062;53.882;10.642;2022-10-16T06:45:40;12.90;99.90
15926;DHT22;8062;53.882;10.642;2022-10-16T06:46:41;12.90;99.90
15926;DHT22;8062;53.882;10.642;2022-10-16T06:47:42;12.90;99.90
15926;DHT22;8062;53.882;10.642;2022-10-16T06:48:43;12.90;99.90
15926;DHT22;8062;53.882;10.642;2022-10-16T06:49:44;12.90;99.90
15926;DHT22;8062;53.882;10.642;2022-10-16T06:52:27;12.90;99.90
15926;DHT22;8062;53.882;10.642;2022-10-16T06:53:32;13.00;99.90